sensor_id;sensor_type;location;lat;lon;timestamp;P1;durP1;ratioP1;P2;durP2;ratioP2
12328;SDS011;6230;52.390;10.256;2022-08-19T00:00:20;8.57;;;7.40;;
12328;SDS011;6230;52.390;10.256;2022-08-19T00:02:46;9.25;;;6.88;;
12328;SDS011;6230;52.390;10.256;2022-08-19T00:05:12;8.40;;;6.30;;
12328;SDS011;6230;52.390;10.256;2022-08-19T00:07:40;8.90;;;7.38;;
12328;SDS011;6230;52.390;10.256;2022-08-19T00:10:07;7.20;;;6.40;;
12328;SDS011;6230;52.390;10.256;2022-08-19T00:12:35;11.15;;;7.35;;
12328;SDS011;6230;52.390;10.256;2022-08-19T00:15:03;9.02;;;7.55;;
12328;SDS011;6230;52.390;10.256;2022-08-19T00:17:29;12.38;;;7.38;;
12328;SDS011;6230;52.390;10.256;2022-08-19T00:19:55;9.80;;;7.05;;
12328;SDS011;6230;52.390;10.256;2022-08-19T00:22:21;9.90;;;7.63;;
12328;SDS011;6230;52.390;10.256;2022-08-19T00:24:46;9.55;;;7.28;;
12328;SDS011;6230;52.390;10.256;2022-08-19T00:27:12;11.23;;;7.50;;
12328;SDS011;6230;52.390;10.256;2022-08-19T00:29:38;8.75;;;7.82;;
12328;SDS011;6230;52.390;10.256;2022-08-19T00:32:04;8.35;;;6.95;;
12328;SDS011;6230;52.390;10.256;2022-08-19T00:34:30;7.57;;;6.88;;
12328;SDS011;6230;52.390;10.256;2022-08-19T00:36:56;8.73;;;7.78;;
12328;SDS011;6230;52.390;10.256;2022-08-19T00:39:22;10.20;;;7.72;;
12328;SDS011;6230;52.390;10.256;2022-08-19T00:41:48;11.45;;;7.32;;
12328;SDS011;6230;52.390;10.256;2022-08-19T00:44:17;8.18;;;7.43;;
12328;SDS011;6230;52.390;10.256;2022-08-19T00:46:45;10.00;;;7.63;;
12328;SDS011;6230;52.390;10.256;2022-08-19T00:49:20;8.52;;;7.18;;
12328;SDS011;6230;52.390;10.256;2022-08-19T00:51:53;8.07;;;7.25;;
12328;SDS011;6230;52.390;10.256;2022-08-19T00:54:23;8.68;;;7.22;;
12328;SDS011;6230;52.390;10.256;2022-08-19T00:56:49;9.35;;;7.30;;
12328;SDS011;6230;52.390;10.256;2022-08-19T00:59:15;9.82;;;6.85;;
12328;SDS011;6230;52.390;10.256;2022-08-19T01:01:43;9.55;;;7.60;;
12328;SDS011;6230;52.390;10.256;2022-08-19T01:04:10;8.18;;;7.35;;
12328;SDS011;6230;52.390;10.256;2022-08-19T01:06:36;8.07;;;7.28;;
12328;SDS011;6230;52.390;10.256;2022-08-19T01:09:04;9.82;;;7.68;;
12328;SDS011;6230;52.390;10.256;2022-08-19T01:11:30;8.40;;;7.60;;
12328;SDS011;6230;52.390;10.256;2022-08-19T01:13:59;8.48;;;7.68;;
12328;SDS011;6230;52.390;10.256;2022-08-19T01:16:25;8.63;;;7.53;;
12328;SDS011;6230;52.390;10.256;2022-08-19T01:18:53;9.38;;;7.32;;
12328;SDS011;6230;52.390;10.256;2022-08-19T01:21:24;9.80;;;6.88;;
12328;SDS011;6230;52.390;10.256;2022-08-19T01:24:02;8.70;;;7.18;;
12328;SDS011;6230;52.390;10.256;2022-08-19T01:26:28;9.52;;;7.70;;
12328;SDS011;6230;52.390;10.256;2022-08-19T01:28:55;13.07;;;7.85;;
12328;SDS011;6230;52.390;10.256;2022-08-19T01:31:23;8.93;;;7.43;;
12328;SDS011;6230;52.390;10.256;2022-08-19T01:33:51;10.02;;;7.40;;
12328;SDS011;6230;52.390;10.256;2022-08-19T01:36:26;10.73;;;7.57;;
12328;SDS011;6230;52.390;10.256;2022-08-19T01:38:55;8.90;;;7.65;;
12328;SDS011;6230;52.390;10.256;2022-08-19T01:41:21;9.20;;;7.55;;
12328;SDS011;6230;52.390;10.256;2022-08-19T01:43:46;8.50;;;7.53;;
12328;SDS011;6230;52.390;10.256;2022-08-19T01:46:12;10.48;;;6.82;;
12328;SDS011;6230;52.390;10.256;2022-08-19T01:48:38;10.05;;;7.43;;
12328;SDS011;6230;52.390;10.256;2022-08-19T01:51:06;11.10;;;7.65;;
12328;SDS011;6230;52.390;10.256;2022-08-19T01:53:34;8.80;;;7.68;;
12328;SDS011;6230;52.390;10.256;2022-08-19T01:56:00;8.93;;;8.02;;
12328;SDS011;6230;52.390;10.256;2022-08-19T01:58:27;9.40;;;7.40;;
12328;SDS011;6230;52.390;10.256;2022-08-19T02:00:57;11.45;;;7.72;;
12328;SDS011;6230;52.390;10.256;2022-08-19T02:03:23;8.75;;;7.55;;
12328;SDS011;6230;52.390;10.256;2022-08-19T02:05:53;8.25;;;7.30;;
12328;SDS011;6230;52.390;10.256;2022-08-19T02:08:20;8.35;;;6.63;;
12328;SDS011;6230;52.390;10.256;2022-08-19T02:10:45;8.20;;;7.32;;
12328;SDS011;6230;52.390;10.256;2022-08-19T02:13:11;13.07;;;8.90;;
12328;SDS011;6230;52.390;10.256;2022-08-19T02:15:38;11.52;;;7.57;;
12328;SDS011;6230;52.390;10.256;2022-08-19T02:18:04;12.50;;;7.72;;
12328;SDS011;6230;52.390;10.256;2022-08-19T02:20:30;9.00;;;8.07;;
12328;SDS011;6230;52.390;10.256;2022-08-19T02:22:55;11.48;;;7.95;;
12328;SDS011;6230;52.390;10.256;2022-08-19T02:25:21;10.32;;;7.90;;
12328;SDS011;6230;52.390;10.256;2022-08-19T02:27:46;9.40;;;7.32;;
12328;SDS011;6230;52.390;10.256;2022-08-19T02:30:13;10.93;;;8.52;;
12328;SDS011;6230;52.390;10.256;2022-08-19T02:32:41;10.15;;;7.88;;
12328;SDS011;6230;52.390;10.256;2022-08-19T02:35:07;9.07;;;8.13;;
12328;SDS011;6230;52.390;10.256;2022-08-19T02:37:33;9.82;;;7.88;;
12328;SDS011;6230;52.390;10.256;2022-08-19T02:40:17;10.85;;;8.63;;
12328;SDS011;6230;52.390;10.256;2022-08-19T02:42:43;10.88;;;8.98;;
12328;SDS011;6230;52.390;10.256;2022-08-19T02:45:10;9.57;;;8.35;;
12328;SDS011;6230;52.390;10.256;2022-08-19T02:47:36;10.55;;;8.10;;
12328;SDS011;6230;52.390;10.256;2022-08-19T02:50:03;9.70;;;8.20;;
12328;SDS011;6230;52.390;10.256;2022-08-19T02:52:29;8.75;;;7.80;;
12328;SDS011;6230;52.390;10.256;2022-08-19T02:54:56;9.55;;;8.32;;
12328;SDS011;6230;52.390;10.256;2022-08-19T02:57:22;9.48;;;8.30;;
12328;SDS011;6230;52.390;10.256;2022-08-19T02:59:48;12.40;;;8.90;;
12328;SDS011;6230;52.390;10.256;2022-08-19T03:02:15;10.18;;;8.57;;
12328;SDS011;6230;52.390;10.256;2022-08-19T03:04:41;9.60;;;8.70;;
12328;SDS011;6230;52.390;10.256;2022-08-19T03:07:07;10.85;;;8.73;;
12328;SDS011;6230;52.390;10.256;2022-08-19T03:09:33;12.45;;;8.95;;
12328;SDS011;6230;52.390;10.256;2022-08-19T03:12:03;12.18;;;8.30;;
12328;SDS011;6230;52.390;10.256;2022-08-19T03:14:30;10.35;;;7.90;;
12328;SDS011;6230;52.390;10.256;2022-08-19T03:16:56;9.25;;;8.25;;
12328;SDS011;6230;52.390;10.256;2022-08-19T03:19:22;10.27;;;8.95;;
12328;SDS011;6230;52.390;10.256;2022-08-19T03:21:48;9.48;;;8.40;;
12328;SDS011;6230;52.390;10.256;2022-08-19T03:24:15;9.27;;;8.35;;
12328;SDS011;6230;52.390;10.256;2022-08-19T03:26:44;10.77;;;8.23;;
12328;SDS011;6230;52.390;10.256;2022-08-19T03:29:15;12.13;;;9.10;;
12328;SDS011;6230;52.390;10.256;2022-08-19T03:31:41;10.80;;;8.63;;
12328;SDS011;6230;52.390;10.256;2022-08-19T03:34:08;10.23;;;8.52;;
12328;SDS011;6230;52.390;10.256;2022-08-19T03:36:36;11.20;;;8.18;;
12328;SDS011;6230;52.390;10.256;2022-08-19T03:39:03;8.85;;;7.95;;
12328;SDS011;6230;52.390;10.256;2022-08-19T03:41:30;8.73;;;7.93;;
12328;SDS011;6230;52.390;10.256;2022-08-19T03:43:57;9.18;;;7.90;;
12328;SDS011;6230;52.390;10.256;2022-08-19T03:46:26;8.80;;;8.00;;
12328;SDS011;6230;52.390;10.256;2022-08-19T03:48:55;10.60;;;8.02;;
12328;SDS011;6230;52.390;10.256;2022-08-19T03:53:53;9.43;;;7.28;;
12328;SDS011;6230;52.390;10.256;2022-08-19T03:56:19;9.38;;;8.00;;
12328;SDS011;6230;52.390;10.256;2022-08-19T03:58:45;8.98;;;7.97;;
12328;SDS011;6230;52.390;10.256;2022-08-19T04:01:12;9.55;;;7.60;;
12328;SDS011;6230;52.390;10.256;2022-08-19T04:03:40;9.23;;;8.23;;
12328;SDS011;6230;52.390;10.256;2022-08-19T04:06:17;10.27;;;7.82;;
12328;SDS011;6230;52.390;10.256;2022-08-19T04:08:46;8.90;;;8.10;;
12328;SDS011;6230;52.390;10.256;2022-08-19T04:11:14;11.45;;;6.88;;
12328;SDS011;6230;52.390;10.256;2022-08-19T04:13:41;8.82;;;7.35;;
12328;SDS011;6230;52.390;10.256;2022-08-19T04:16:09;10.05;;;8.10;;
12328;SDS011;6230;52.390;10.256;2022-08-19T04:18:36;9.45;;;8.43;;
12328;SDS011;6230;52.390;10.256;2022-08-19T04:21:04;9.48;;;8.35;;
12328;SDS011;6230;52.390;10.256;2022-08-19T04:23:31;9.38;;;8.35;;
12328;SDS011;6230;52.390;10.256;2022-08-19T04:25:58;10.85;;;8.30;;
12328;SDS011;6230;52.390;10.256;2022-08-19T04:28:23;9.73;;;8.63;;
12328;SDS011;6230;52.390;10.256;2022-08-19T04:30:51;8.77;;;7.88;;
12328;SDS011;6230;52.390;10.256;2022-08-19T04:33:19;11.85;;;8.20;;
12328;SDS011;6230;52.390;10.256;2022-08-19T04:35:50;7.78;;;6.93;;
12328;SDS011;6230;52.390;10.256;2022-08-19T04:38:18;9.60;;;8.38;;
12328;SDS011;6230;52.390;10.256;2022-08-19T04:40:46;9.25;;;8.15;;
12328;SDS011;6230;52.390;10.256;2022-08-19T04:43:32;13.50;;;8.82;;
12328;SDS011;6230;52.390;10.256;2022-08-19T04:46:03;9.73;;;8.73;;
12328;SDS011;6230;52.390;10.256;2022-08-19T04:48:31;11.63;;;8.60;;
12328;SDS011;6230;52.390;10.256;2022-08-19T04:50:57;10.68;;;8.57;;
12328;SDS011;6230;52.390;10.256;2022-08-19T04:53:27;10.60;;;9.02;;
12328;SDS011;6230;52.390;10.256;2022-08-19T04:55:57;9.88;;;8.77;;
12328;SDS011;6230;52.390;10.256;2022-08-19T04:58:24;9.20;;;7.68;;
12328;SDS011;6230;52.390;10.256;2022-08-19T05:00:52;12.07;;;8.95;;
12328;SDS011;6230;52.390;10.256;2022-08-19T05:03:18;10.35;;;8.35;;
12328;SDS011;6230;52.390;10.256;2022-08-19T05:05:45;10.63;;;8.40;;
12328;SDS011;6230;52.390;10.256;2022-08-19T05:08:16;9.23;;;8.15;;
12328;SDS011;6230;52.390;10.256;2022-08-19T05:10:45;10.32;;;8.88;;
12328;SDS011;6230;52.390;10.256;2022-08-19T05:13:13;10.07;;;8.80;;
12328;SDS011;6230;52.390;10.256;2022-08-19T05:15:39;10.63;;;8.07;;
12328;SDS011;6230;52.390;10.256;2022-08-19T05:18:05;10.57;;;7.97;;
12328;SDS011;6230;52.390;10.256;2022-08-19T05:20:49;8.65;;;7.75;;
12328;SDS011;6230;52.390;10.256;2022-08-19T05:23:33;8.13;;;7.32;;
12328;SDS011;6230;52.390;10.256;2022-08-19T05:25:59;10.73;;;8.55;;
12328;SDS011;6230;52.390;10.256;2022-08-19T05:28:24;10.40;;;7.93;;
12328;SDS011;6230;52.390;10.256;2022-08-19T05:30:52;9.95;;;7.65;;
12328;SDS011;6230;52.390;10.256;2022-08-19T05:33:20;12.15;;;8.38;;
12328;SDS011;6230;52.390;10.256;2022-08-19T05:35:46;10.20;;;9.07;;
12328;SDS011;6230;52.390;10.256;2022-08-19T05:38:14;9.18;;;8.23;;
12328;SDS011;6230;52.390;10.256;2022-08-19T05:40:40;8.63;;;7.50;;
12328;SDS011;6230;52.390;10.256;2022-08-19T05:43:06;8.32;;;7.47;;
12328;SDS011;6230;52.390;10.256;2022-08-19T05:45:38;10.63;;;8.43;;
12328;SDS011;6230;52.390;10.256;2022-08-19T05:48:04;9.38;;;7.63;;
12328;SDS011;6230;52.390;10.256;2022-08-19T05:50:30;11.60;;;7.93;;
12328;SDS011;6230;52.390;10.256;2022-08-19T05:52:56;10.68;;;7.78;;
12328;SDS011;6230;52.390;10.256;2022-08-19T05:55:21;7.60;;;6.80;;
12328;SDS011;6230;52.390;10.256;2022-08-19T05:57:48;7.38;;;6.60;;
12328;SDS011;6230;52.390;10.256;2022-08-19T06:00:14;11.00;;;7.97;;
12328;SDS011;6230;52.390;10.256;2022-08-19T06:02:40;9.68;;;6.95;;
12328;SDS011;6230;52.390;10.256;2022-08-19T06:05:06;8.70;;;6.22;;
12328;SDS011;6230;52.390;10.256;2022-08-19T06:07:34;7.10;;;6.03;;
12328;SDS011;6230;52.390;10.256;2022-08-19T06:10:00;8.13;;;6.90;;
12328;SDS011;6230;52.390;10.256;2022-08-19T06:12:27;6.60;;;5.80;;
12328;SDS011;6230;52.390;10.256;2022-08-19T06:14:56;6.45;;;5.82;;
12328;SDS011;6230;52.390;10.256;2022-08-19T06:17:22;6.85;;;6.15;;
12328;SDS011;6230;52.390;10.256;2022-08-19T06:19:50;7.28;;;5.30;;
12328;SDS011;6230;52.390;10.256;2022-08-19T06:22:15;7.15;;;5.00;;
12328;SDS011;6230;52.390;10.256;2022-08-19T06:24:41;8.30;;;5.85;;
12328;SDS011;6230;52.390;10.256;2022-08-19T06:27:07;5.90;;;5.10;;
12328;SDS011;6230;52.390;10.256;2022-08-19T06:29:33;5.93;;;5.10;;
12328;SDS011;6230;52.390;10.256;2022-08-19T06:32:00;5.57;;;4.55;;
12328;SDS011;6230;52.390;10.256;2022-08-19T06:34:28;5.75;;;4.80;;
12328;SDS011;6230;52.390;10.256;2022-08-19T06:36:56;5.35;;;4.20;;
12328;SDS011;6230;52.390;10.256;2022-08-19T06:39:26;6.68;;;4.55;;
12328;SDS011;6230;52.390;10.256;2022-08-19T06:41:55;6.43;;;4.78;;
12328;SDS011;6230;52.390;10.256;2022-08-19T06:44:24;4.93;;;4.05;;
12328;SDS011;6230;52.390;10.256;2022-08-19T06:46:52;7.65;;;5.00;;
12328;SDS011;6230;52.390;10.256;2022-08-19T06:49:18;5.95;;;4.93;;
12328;SDS011;6230;52.390;10.256;2022-08-19T06:51:45;7.13;;;4.95;;
12328;SDS011;6230;52.390;10.256;2022-08-19T06:54:17;6.30;;;4.40;;
12328;SDS011;6230;52.390;10.256;2022-08-19T06:56:44;6.43;;;4.85;;
12328;SDS011;6230;52.390;10.256;2022-08-19T06:59:11;10.77;;;5.13;;
12328;SDS011;6230;52.390;10.256;2022-08-19T07:01:41;7.28;;;4.70;;
12328;SDS011;6230;52.390;10.256;2022-08-19T07:04:11;7.07;;;4.80;;
12328;SDS011;6230;52.390;10.256;2022-08-19T07:06:38;5.00;;;4.00;;
12328;SDS011;6230;52.390;10.256;2022-08-19T07:09:04;6.00;;;4.38;;
12328;SDS011;6230;52.390;10.256;2022-08-19T07:11:31;5.45;;;4.43;;
12328;SDS011;6230;52.390;10.256;2022-08-19T07:13:57;5.78;;;4.22;;
12328;SDS011;6230;52.390;10.256;2022-08-19T07:16:23;7.00;;;4.70;;
12328;SDS011;6230;52.390;10.256;2022-08-19T07:18:50;7.60;;;4.18;;
12328;SDS011;6230;52.390;10.256;2022-08-19T07:21:20;5.75;;;4.72;;
12328;SDS011;6230;52.390;10.256;2022-08-19T07:23:49;4.90;;;4.50;;
12328;SDS011;6230;52.390;10.256;2022-08-19T07:26:19;6.55;;;5.05;;
12328;SDS011;6230;52.390;10.256;2022-08-19T07:28:57;7.75;;;4.50;;
12328;SDS011;6230;52.390;10.256;2022-08-19T07:31:25;5.57;;;4.40;;
12328;SDS011;6230;52.390;10.256;2022-08-19T07:33:52;4.97;;;4.35;;
12328;SDS011;6230;52.390;10.256;2022-08-19T07:36:22;6.38;;;4.35;;
12328;SDS011;6230;52.390;10.256;2022-08-19T07:38:49;4.57;;;3.85;;
12328;SDS011;6230;52.390;10.256;2022-08-19T07:41:20;4.43;;;3.90;;
12328;SDS011;6230;52.390;10.256;2022-08-19T07:43:48;12.77;;;10.55;;
12328;SDS011;6230;52.390;10.256;2022-08-19T07:46:14;9.00;;;7.32;;
12328;SDS011;6230;52.390;10.256;2022-08-19T07:48:41;6.00;;;4.80;;
12328;SDS011;6230;52.390;10.256;2022-08-19T07:51:10;5.38;;;4.65;;
12328;SDS011;6230;52.390;10.256;2022-08-19T07:53:38;5.20;;;4.47;;
12328;SDS011;6230;52.390;10.256;2022-08-19T07:56:04;7.05;;;4.32;;
12328;SDS011;6230;52.390;10.256;2022-08-19T07:58:34;6.07;;;4.65;;
12328;SDS011;6230;52.390;10.256;2022-08-19T08:01:03;5.28;;;4.78;;
12328;SDS011;6230;52.390;10.256;2022-08-19T08:03:29;5.18;;;4.20;;
12328;SDS011;6230;52.390;10.256;2022-08-19T08:06:14;5.28;;;4.43;;
12328;SDS011;6230;52.390;10.256;2022-08-19T08:09:00;5.05;;;4.55;;
12328;SDS011;6230;52.390;10.256;2022-08-19T08:11:37;6.38;;;4.60;;
12328;SDS011;6230;52.390;10.256;2022-08-19T08:14:04;5.63;;;4.60;;
12328;SDS011;6230;52.390;10.256;2022-08-19T08:16:34;5.32;;;4.53;;
12328;SDS011;6230;52.390;10.256;2022-08-19T08:19:03;4.63;;;4.13;;
12328;SDS011;6230;52.390;10.256;2022-08-19T08:21:30;5.93;;;4.68;;
12328;SDS011;6230;52.390;10.256;2022-08-19T08:23:57;6.43;;;5.07;;
12328;SDS011;6230;52.390;10.256;2022-08-19T08:26:23;7.07;;;4.40;;
12328;SDS011;6230;52.390;10.256;2022-08-19T08:28:49;5.65;;;4.95;;
12328;SDS011;6230;52.390;10.256;2022-08-19T08:31:15;6.35;;;4.00;;
12328;SDS011;6230;52.390;10.256;2022-08-19T08:33:43;5.88;;;4.53;;
12328;SDS011;6230;52.390;10.256;2022-08-19T08:36:09;6.35;;;4.47;;
12328;SDS011;6230;52.390;10.256;2022-08-19T08:38:36;5.88;;;4.63;;
12328;SDS011;6230;52.390;10.256;2022-08-19T08:41:05;6.22;;;4.78;;
12328;SDS011;6230;52.390;10.256;2022-08-19T08:43:46;6.40;;;4.60;;
12328;SDS011;6230;52.390;10.256;2022-08-19T08:46:20;6.72;;;4.47;;
12328;SDS011;6230;52.390;10.256;2022-08-19T08:48:59;5.70;;;4.40;;
12328;SDS011;6230;52.390;10.256;2022-08-19T08:51:28;6.43;;;5.05;;
12328;SDS011;6230;52.390;10.256;2022-08-19T08:53:58;5.40;;;4.90;;
12328;SDS011;6230;52.390;10.256;2022-08-19T08:56:25;6.18;;;5.30;;
12328;SDS011;6230;52.390;10.256;2022-08-19T08:59:04;6.22;;;4.93;;
12328;SDS011;6230;52.390;10.256;2022-08-19T09:01:35;6.50;;;4.85;;
12328;SDS011;6230;52.390;10.256;2022-08-19T09:04:05;7.28;;;5.53;;
12328;SDS011;6230;52.390;10.256;2022-08-19T09:06:37;6.63;;;5.55;;
12328;SDS011;6230;52.390;10.256;2022-08-19T09:14:53;7.05;;;5.07;;
12328;SDS011;6230;52.390;10.256;2022-08-19T09:17:23;5.32;;;4.78;;
12328;SDS011;6230;52.390;10.256;2022-08-19T09:22:31;5.25;;;4.38;;
12328;SDS011;6230;52.390;10.256;2022-08-19T09:24:57;7.78;;;4.53;;
12328;SDS011;6230;52.390;10.256;2022-08-19T09:27:23;6.72;;;4.53;;
12328;SDS011;6230;52.390;10.256;2022-08-19T09:29:50;5.20;;;4.70;;
12328;SDS011;6230;52.390;10.256;2022-08-19T09:32:17;5.72;;;5.18;;
12328;SDS011;6230;52.390;10.256;2022-08-19T09:34:43;7.20;;;5.28;;
12328;SDS011;6230;52.390;10.256;2022-08-19T09:37:09;5.30;;;4.80;;
12328;SDS011;6230;52.390;10.256;2022-08-19T09:39:34;6.05;;;5.00;;
12328;SDS011;6230;52.390;10.256;2022-08-19T09:42:00;6.22;;;5.00;;
12328;SDS011;6230;52.390;10.256;2022-08-19T09:44:28;6.13;;;4.90;;
12328;SDS011;6230;52.390;10.256;2022-08-19T09:46:54;6.40;;;4.97;;
12328;SDS011;6230;52.390;10.256;2022-08-19T09:49:20;6.50;;;5.72;;
12328;SDS011;6230;52.390;10.256;2022-08-19T09:51:49;5.40;;;4.90;;
12328;SDS011;6230;52.390;10.256;2022-08-19T09:54:15;6.88;;;5.40;;
12328;SDS011;6230;52.390;10.256;2022-08-19T09:56:42;6.88;;;5.85;;
12328;SDS011;6230;52.390;10.256;2022-08-19T09:59:08;7.60;;;5.72;;
12328;SDS011;6230;52.390;10.256;2022-08-19T10:01:34;6.35;;;5.47;;
12328;SDS011;6230;52.390;10.256;2022-08-19T10:04:00;9.32;;;5.70;;
12328;SDS011;6230;52.390;10.256;2022-08-19T10:06:28;7.15;;;6.13;;
12328;SDS011;6230;52.390;10.256;2022-08-19T10:08:58;7.15;;;5.65;;
12328;SDS011;6230;52.390;10.256;2022-08-19T10:11:24;6.60;;;5.60;;
12328;SDS011;6230;52.390;10.256;2022-08-19T10:13:51;6.50;;;5.80;;
12328;SDS011;6230;52.390;10.256;2022-08-19T10:16:18;7.55;;;6.20;;
12328;SDS011;6230;52.390;10.256;2022-08-19T10:18:46;7.22;;;6.53;;
12328;SDS011;6230;52.390;10.256;2022-08-19T10:21:16;7.05;;;6.35;;
12328;SDS011;6230;52.390;10.256;2022-08-19T10:23:46;6.63;;;5.68;;
12328;SDS011;6230;52.390;10.256;2022-08-19T10:26:15;6.88;;;5.68;;
12328;SDS011;6230;52.390;10.256;2022-08-19T10:28:42;5.60;;;5.10;;
12328;SDS011;6230;52.390;10.256;2022-08-19T10:31:18;6.82;;;6.18;;
12328;SDS011;6230;52.390;10.256;2022-08-19T10:33:47;6.25;;;5.63;;
12328;SDS011;6230;52.390;10.256;2022-08-19T10:36:20;7.28;;;5.55;;
12328;SDS011;6230;52.390;10.256;2022-08-19T10:38:49;6.03;;;5.40;;
12328;SDS011;6230;52.390;10.256;2022-08-19T10:41:17;5.85;;;5.25;;
12328;SDS011;6230;52.390;10.256;2022-08-19T10:43:45;6.45;;;5.65;;
12328;SDS011;6230;52.390;10.256;2022-08-19T10:46:12;6.75;;;5.35;;
12328;SDS011;6230;52.390;10.256;2022-08-19T10:48:39;8.55;;;6.20;;
12328;SDS011;6230;52.390;10.256;2022-08-19T10:51:05;5.47;;;4.97;;
12328;SDS011;6230;52.390;10.256;2022-08-19T10:53:50;5.72;;;5.22;;
12328;SDS011;6230;52.390;10.256;2022-08-19T10:56:15;5.50;;;4.93;;
12328;SDS011;6230;52.390;10.256;2022-08-19T10:59:00;6.35;;;5.68;;
12328;SDS011;6230;52.390;10.256;2022-08-19T11:01:27;6.00;;;5.40;;
12328;SDS011;6230;52.390;10.256;2022-08-19T11:03:55;7.18;;;5.03;;
12328;SDS011;6230;52.390;10.256;2022-08-19T11:06:22;5.82;;;4.82;;
12328;SDS011;6230;52.390;10.256;2022-08-19T11:08:50;5.28;;;4.65;;
12328;SDS011;6230;52.390;10.256;2022-08-19T11:11:16;5.60;;;4.80;;
12328;SDS011;6230;52.390;10.256;2022-08-19T11:13:42;5.00;;;4.60;;
12328;SDS011;6230;52.390;10.256;2022-08-19T11:16:10;80.45;;;8.80;;
12328;SDS011;6230;52.390;10.256;2022-08-19T11:18:42;5.97;;;4.47;;
12328;SDS011;6230;52.390;10.256;2022-08-19T11:21:14;4.80;;;3.88;;
12328;SDS011;6230;52.390;10.256;2022-08-19T11:23:43;5.07;;;4.53;;
12328;SDS011;6230;52.390;10.256;2022-08-19T11:26:10;3.88;;;3.50;;
12328;SDS011;6230;52.390;10.256;2022-08-19T11:28:36;8.52;;;6.65;;
12328;SDS011;6230;52.390;10.256;2022-08-19T11:31:02;5.15;;;4.75;;
12328;SDS011;6230;52.390;10.256;2022-08-19T11:33:28;6.78;;;4.95;;
12328;SDS011;6230;52.390;10.256;2022-08-19T11:35:57;5.15;;;4.65;;
12328;SDS011;6230;52.390;10.256;2022-08-19T11:38:24;4.80;;;4.30;;
12328;SDS011;6230;52.390;10.256;2022-08-19T11:40:54;6.65;;;4.68;;
12328;SDS011;6230;52.390;10.256;2022-08-19T11:43:20;7.20;;;4.78;;
12328;SDS011;6230;52.390;10.256;2022-08-19T11:45:46;5.38;;;4.47;;
12328;SDS011;6230;52.390;10.256;2022-08-19T11:48:13;5.60;;;4.93;;
12328;SDS011;6230;52.390;10.256;2022-08-19T11:50:39;4.57;;;4.10;;
12328;SDS011;6230;52.390;10.256;2022-08-19T11:53:06;5.32;;;4.60;;
12328;SDS011;6230;52.390;10.256;2022-08-19T11:55:31;5.97;;;4.43;;
12328;SDS011;6230;52.390;10.256;2022-08-19T11:57:57;5.43;;;4.80;;
12328;SDS011;6230;52.390;10.256;2022-08-19T12:00:22;5.28;;;4.78;;
12328;SDS011;6230;52.390;10.256;2022-08-19T12:02:48;5.82;;;4.78;;
12328;SDS011;6230;52.390;10.256;2022-08-19T12:05:13;4.85;;;4.35;;
12328;SDS011;6230;52.390;10.256;2022-08-19T12:07:39;6.60;;;4.25;;
12328;SDS011;6230;52.390;10.256;2022-08-19T12:10:06;4.45;;;4.05;;
12328;SDS011;6230;52.390;10.256;2022-08-19T12:12:32;4.80;;;4.32;;
12328;SDS011;6230;52.390;10.256;2022-08-19T12:14:57;8.40;;;5.00;;
12328;SDS011;6230;52.390;10.256;2022-08-19T12:17:24;5.22;;;4.55;;
12328;SDS011;6230;52.390;10.256;2022-08-19T12:19:51;10.60;;;4.53;;
12328;SDS011;6230;52.390;10.256;2022-08-19T12:22:17;4.57;;;4.20;;
12328;SDS011;6230;52.390;10.256;2022-08-19T12:24:43;5.25;;;4.30;;
12328;SDS011;6230;52.390;10.256;2022-08-19T12:27:08;6.05;;;3.85;;
12328;SDS011;6230;52.390;10.256;2022-08-19T12:29:34;9.20;;;4.97;;
12328;SDS011;6230;52.390;10.256;2022-08-19T12:32:00;6.90;;;4.38;;
12328;SDS011;6230;52.390;10.256;2022-08-19T12:34:27;6.15;;;3.83;;
12328;SDS011;6230;52.390;10.256;2022-08-19T12:36:58;6.78;;;3.78;;
12328;SDS011;6230;52.390;10.256;2022-08-19T12:39:25;4.82;;;4.18;;
12328;SDS011;6230;52.390;10.256;2022-08-19T12:41:51;6.63;;;3.85;;
12328;SDS011;6230;52.390;10.256;2022-08-19T12:44:17;4.45;;;4.05;;
12328;SDS011;6230;52.390;10.256;2022-08-19T12:46:43;4.13;;;3.75;;
12328;SDS011;6230;52.390;10.256;2022-08-19T12:49:09;4.32;;;3.92;;
12328;SDS011;6230;52.390;10.256;2022-08-19T12:51:35;4.20;;;3.85;;
12328;SDS011;6230;52.390;10.256;2022-08-19T12:54:00;4.40;;;3.90;;
12328;SDS011;6230;52.390;10.256;2022-08-19T12:56:26;4.32;;;3.70;;
12328;SDS011;6230;52.390;10.256;2022-08-19T12:58:52;5.45;;;4.47;;
12328;SDS011;6230;52.390;10.256;2022-08-19T13:01:18;3.90;;;3.58;;
12328;SDS011;6230;52.390;10.256;2022-08-19T13:03:44;3.95;;;3.63;;
12328;SDS011;6230;52.390;10.256;2022-08-19T13:06:11;3.60;;;3.30;;
12328;SDS011;6230;52.390;10.256;2022-08-19T13:08:37;5.35;;;4.95;;
12328;SDS011;6230;52.390;10.256;2022-08-19T13:11:13;4.03;;;3.72;;
12328;SDS011;6230;52.390;10.256;2022-08-19T13:13:43;3.92;;;3.38;;
12328;SDS011;6230;52.390;10.256;2022-08-19T13:16:11;4.75;;;3.92;;
12328;SDS011;6230;52.390;10.256;2022-08-19T13:18:38;4.32;;;3.60;;
12328;SDS011;6230;52.390;10.256;2022-08-19T13:21:05;3.80;;;3.40;;
12328;SDS011;6230;52.390;10.256;2022-08-19T13:23:32;3.97;;;3.67;;
12328;SDS011;6230;52.390;10.256;2022-08-19T13:25:59;4.63;;;3.85;;
12328;SDS011;6230;52.390;10.256;2022-08-19T13:28:27;6.20;;;3.95;;
12328;SDS011;6230;52.390;10.256;2022-08-19T13:31:14;4.57;;;4.10;;
12328;SDS011;6230;52.390;10.256;2022-08-19T13:34:00;3.75;;;3.45;;
12328;SDS011;6230;52.390;10.256;2022-08-19T13:36:26;5.22;;;3.50;;
12328;SDS011;6230;52.390;10.256;2022-08-19T13:38:51;4.28;;;3.50;;
12328;SDS011;6230;52.390;10.256;2022-08-19T13:41:17;4.03;;;3.63;;
12328;SDS011;6230;52.390;10.256;2022-08-19T13:43:44;4.82;;;4.43;;
12328;SDS011;6230;52.390;10.256;2022-08-19T13:46:10;5.22;;;4.70;;
12328;SDS011;6230;52.390;10.256;2022-08-19T13:48:39;10.60;;;6.93;;
12328;SDS011;6230;52.390;10.256;2022-08-19T13:51:08;11.52;;;7.53;;
12328;SDS011;6230;52.390;10.256;2022-08-19T13:53:38;7.78;;;7.07;;
12328;SDS011;6230;52.390;10.256;2022-08-19T13:56:05;11.30;;;10.10;;
12328;SDS011;6230;52.390;10.256;2022-08-19T13:58:31;14.77;;;13.18;;
12328;SDS011;6230;52.390;10.256;2022-08-19T14:00:57;11.05;;;9.93;;
12328;SDS011;6230;52.390;10.256;2022-08-19T14:03:24;11.80;;;10.65;;
12328;SDS011;6230;52.390;10.256;2022-08-19T14:05:50;12.57;;;10.43;;
12328;SDS011;6230;52.390;10.256;2022-08-19T14:08:15;5.32;;;4.82;;
12328;SDS011;6230;52.390;10.256;2022-08-19T14:10:42;11.43;;;4.63;;
12328;SDS011;6230;52.390;10.256;2022-08-19T14:13:09;10.73;;;9.68;;
12328;SDS011;6230;52.390;10.256;2022-08-19T14:15:37;8.40;;;7.53;;
12328;SDS011;6230;52.390;10.256;2022-08-19T14:18:03;4.10;;;3.80;;
12328;SDS011;6230;52.390;10.256;2022-08-19T14:20:28;13.30;;;4.80;;
12328;SDS011;6230;52.390;10.256;2022-08-19T14:22:54;15.50;;;5.22;;
12328;SDS011;6230;52.390;10.256;2022-08-19T14:25:22;7.03;;;6.40;;
12328;SDS011;6230;52.390;10.256;2022-08-19T14:27:52;6.65;;;4.68;;
12328;SDS011;6230;52.390;10.256;2022-08-19T14:30:20;6.35;;;5.10;;
12328;SDS011;6230;52.390;10.256;2022-08-19T14:32:47;4.40;;;4.00;;
12328;SDS011;6230;52.390;10.256;2022-08-19T14:35:13;8.80;;;6.40;;
12328;SDS011;6230;52.390;10.256;2022-08-19T14:37:41;7.93;;;5.97;;
12328;SDS011;6230;52.390;10.256;2022-08-19T14:40:07;5.50;;;4.72;;
12328;SDS011;6230;52.390;10.256;2022-08-19T14:42:33;4.10;;;3.70;;
12328;SDS011;6230;52.390;10.256;2022-08-19T14:45:00;4.55;;;4.15;;
12328;SDS011;6230;52.390;10.256;2022-08-19T14:47:26;5.90;;;3.90;;
12328;SDS011;6230;52.390;10.256;2022-08-19T14:49:52;3.70;;;3.40;;
12328;SDS011;6230;52.390;10.256;2022-08-19T14:52:18;3.85;;;3.55;;
12328;SDS011;6230;52.390;10.256;2022-08-19T14:54:44;4.40;;;3.65;;
12328;SDS011;6230;52.390;10.256;2022-08-19T14:57:13;5.35;;;4.35;;
12328;SDS011;6230;52.390;10.256;2022-08-19T14:59:46;5.30;;;3.85;;